Stanhope, New Jersey
Current Conditions -  °F | °C
As of 8:45 AM on Thursday 29 Jan 2015 (Local Time) from KMMU Reporting Station
Scattered Clouds Scattered Clouds  
Wind Chill: 16°   Ceiling: Unl
Heat Index: 16°   Visibility: 10mi
Dew Point:   Wind: 0mph
Humidity: 68%   Direction: NA
Pressure: 30.33"   Gusts: NA
Location:  40.9°N, 74.71°W
Report Text: KMMU 291345Z 00000KT 10SM SCT150 M09/M14 A3033
Loading
Personal Weather Stations






























Interactive Weather Map New forecast layout! Learn more

10-Day Weather Forecast

Advertisements
Track Severe Weather on mobile